createdAt,value
2022-10-19T00:02:09.580Z,101877.00
2022-10-19T00:04:39.713Z,101884.00
2022-10-19T00:07:09.832Z,101881.00
2022-10-19T00:09:40.137Z,101877.00
2022-10-19T00:12:10.185Z,101870.00
2022-10-19T00:14:43.008Z,101880.00
2022-10-19T00:17:13.115Z,101888.00
2022-10-19T00:19:43.333Z,101885.00
2022-10-19T00:22:14.142Z,101883.00
2022-10-19T00:24:44.844Z,101881.00
2022-10-19T00:27:15.065Z,101884.00
2022-10-19T00:29:47.906Z,101890.00
2022-10-19T00:32:18.154Z,101882.00
2022-10-19T00:34:48.479Z,101890.00
2022-10-19T00:37:18.627Z,101890.00
2022-10-19T00:39:48.767Z,101884.00
2022-10-19T00:42:18.902Z,101894.00
2022-10-19T00:45:14.687Z,101879.00
2022-10-19T00:47:46.757Z,101886.00
2022-10-19T00:50:18.410Z,101893.00
2022-10-19T00:52:48.621Z,101888.00
2022-10-19T00:55:18.839Z,101887.00
2022-10-19T00:57:49.010Z,101888.00
2022-10-19T01:00:22.282Z,101887.00
2022-10-19T01:02:52.359Z,101884.00
2022-10-19T01:05:22.859Z,101882.00
2022-10-19T01:07:53.353Z,101886.00
2022-10-19T01:10:33.595Z,101885.00
2022-10-19T01:13:19.575Z,101877.00
2022-10-19T01:16:00.609Z,101872.00
2022-10-19T01:18:41.884Z,101875.00
2022-10-19T01:21:26.439Z,101870.00
2022-10-19T01:24:34.847Z,101871.00
2022-10-19T01:27:39.669Z,101877.00
2022-10-19T01:30:22.571Z,101870.00
2022-10-19T01:33:11.746Z,101864.00
2022-10-19T01:35:52.467Z,101858.00
2022-10-19T01:38:31.407Z,101869.00
2022-10-19T01:41:15.436Z,101859.00
2022-10-19T01:43:51.865Z,101870.00
2022-10-19T01:46:30.628Z,101863.00
2022-10-19T01:49:11.898Z,101862.00
2022-10-19T01:51:47.001Z,101864.00
2022-10-19T01:54:20.235Z,101870.00
2022-10-19T01:56:52.983Z,101861.00
2022-10-19T01:59:25.717Z,101858.00
2022-10-19T02:02:00.371Z,101862.00
2022-10-19T02:04:30.330Z,101859.00
2022-10-19T02:07:01.249Z,101851.00
2022-10-19T02:09:31.596Z,101843.00
2022-10-19T02:12:06.176Z,101849.00
2022-10-19T02:14:42.640Z,101837.00
2022-10-19T02:17:18.526Z,101832.00
2022-10-19T02:19:48.719Z,101845.00
2022-10-19T02:22:18.876Z,101849.00
2022-10-19T02:24:48.970Z,101852.00
2022-10-19T02:27:20.521Z,101850.00
2022-10-19T02:29:50.714Z,101851.00
2022-10-19T02:32:24.265Z,101852.00
2022-10-19T02:34:54.458Z,101857.00
2022-10-19T02:37:25.745Z,101851.00
2022-10-19T02:39:56.247Z,101844.00
2022-10-19T02:42:35.893Z,101847.00
2022-10-19T02:45:11.821Z,101840.00
2022-10-19T02:47:50.383Z,101838.00
2022-10-19T02:50:22.763Z,101828.00
2022-10-19T02:52:53.206Z,101840.00
2022-10-19T02:55:23.628Z,101849.00
2022-10-19T02:57:53.958Z,101852.00
2022-10-19T03:00:24.286Z,101850.00
2022-10-19T03:02:57.013Z,101852.00
2022-10-19T03:05:27.116Z,101842.00
2022-10-19T03:07:57.277Z,101851.00
2022-10-19T03:10:27.609Z,101840.00
2022-10-19T03:13:00.226Z,101850.00
2022-10-19T03:15:31.145Z,101863.00
2022-10-19T03:18:04.108Z,101851.00
2022-10-19T03:20:34.595Z,101856.00
2022-10-19T03:23:04.927Z,101858.00
2022-10-19T03:25:35.440Z,101856.00
2022-10-19T03:28:05.991Z,101862.00
2022-10-19T03:30:36.100Z,101876.00
2022-10-19T03:33:09.020Z,101860.00
2022-10-19T03:35:39.388Z,101858.00
2022-10-19T03:38:09.532Z,101869.00
2022-10-19T03:40:39.762Z,101852.00
2022-10-19T03:43:09.905Z,101869.00
2022-10-19T03:45:40.104Z,101858.00
2022-10-19T03:48:13.031Z,101863.00
2022-10-19T03:50:43.172Z,101864.00
2022-10-19T03:53:13.374Z,101872.00
2022-10-19T03:55:43.653Z,101859.00
2022-10-19T03:58:13.846Z,101873.00
2022-10-19T04:00:44.246Z,101877.00
2022-10-19T04:03:17.000Z,101872.00
2022-10-19T04:05:47.057Z,101877.00
2022-10-19T04:08:17.163Z,101875.00
2022-10-19T04:10:47.508Z,101874.00
2022-10-19T04:13:17.784Z,101881.00
2022-10-19T04:15:48.005Z,101886.00
2022-10-19T04:18:21.184Z,101889.00
2022-10-19T04:20:51.441Z,101893.00
2022-10-19T04:23:21.748Z,101898.00
2022-10-19T04:25:52.066Z,101904.00
2022-10-19T04:28:22.294Z,101899.00
2022-10-19T04:30:52.359Z,101901.00
2022-10-19T04:33:25.324Z,101894.00
2022-10-19T04:36:02.141Z,101892.00
2022-10-19T04:38:33.100Z,101896.00
2022-10-19T04:41:06.057Z,101904.00
2022-10-19T04:43:36.742Z,101899.00
2022-10-19T04:46:10.174Z,101915.00
2022-10-19T04:48:44.297Z,101907.00
2022-10-19T04:51:15.003Z,101913.00
2022-10-19T04:53:46.515Z,101917.00
2022-10-19T04:56:19.466Z,101913.00
2022-10-19T04:58:49.901Z,101917.00
2022-10-19T05:01:23.135Z,101919.00
2022-10-19T05:04:00.890Z,101926.00
2022-10-19T05:06:32.479Z,101920.00
2022-10-19T05:09:03.630Z,101932.00
2022-10-19T05:11:33.854Z,101929.00
2022-10-19T05:14:03.996Z,101940.00
2022-10-19T05:16:34.096Z,101934.00
2022-10-19T05:19:06.910Z,101933.00
2022-10-19T05:21:37.177Z,101928.00
2022-10-19T05:24:07.708Z,101921.00
2022-10-19T05:26:37.896Z,101932.00
2022-10-19T05:29:08.344Z,101933.00
2022-10-19T05:31:38.539Z,101933.00
2022-10-19T05:34:11.324Z,101933.00
2022-10-19T05:36:42.997Z,101933.00
2022-10-19T05:39:18.703Z,101929.00
2022-10-19T05:41:50.330Z,101936.00
2022-10-19T05:44:23.406Z,101939.00
2022-10-19T05:46:54.797Z,101939.00
2022-10-19T05:49:27.746Z,101950.00
2022-10-19T05:51:58.235Z,101957.00
2022-10-19T05:54:28.846Z,101952.00
2022-10-19T05:56:59.220Z,101961.00
2022-10-19T05:59:29.297Z,101952.00
2022-10-19T06:01:59.647Z,101960.00
2022-10-19T06:04:33.689Z,101965.00
2022-10-19T06:07:04.708Z,101957.00
2022-10-19T06:09:36.700Z,101964.00
2022-10-19T06:12:07.651Z,101965.00
2022-10-19T06:14:37.846Z,101967.00
2022-10-19T06:17:08.017Z,101972.00
2022-10-19T06:19:41.127Z,101968.00
2022-10-19T06:22:11.436Z,101969.00
2022-10-19T06:24:41.679Z,101974.00
2022-10-19T06:27:11.933Z,101961.00
2022-10-19T06:29:42.253Z,101963.00
2022-10-19T06:32:12.548Z,101962.00
2022-10-19T06:34:45.303Z,101960.00
2022-10-19T06:37:15.408Z,101965.00
2022-10-19T06:39:45.700Z,101964.00
2022-10-19T06:42:15.829Z,101954.00
2022-10-19T06:44:46.330Z,101962.00
2022-10-19T06:47:18.721Z,101968.00
2022-10-19T06:49:51.519Z,101972.00
2022-10-19T06:52:21.804Z,101968.00
2022-10-19T06:54:52.101Z,101972.00
2022-10-19T06:57:22.386Z,101978.00
2022-10-19T06:59:53.049Z,101982.00
2022-10-19T07:02:24.113Z,101995.00
2022-10-19T07:04:56.820Z,101987.00
2022-10-19T07:07:28.002Z,101994.00
2022-10-19T07:09:58.143Z,102000.00
2022-10-19T07:12:28.320Z,101997.00
2022-10-19T07:14:58.479Z,102009.00
2022-10-19T07:17:28.890Z,102008.00
2022-10-19T07:20:01.619Z,102005.00
2022-10-19T07:22:31.861Z,102011.00
2022-10-19T07:25:02.066Z,102011.00
2022-10-19T07:27:36.746Z,102001.00
2022-10-19T07:30:09.133Z,102016.00
2022-10-19T07:32:42.030Z,102015.00
2022-10-19T07:35:18.830Z,102020.00
2022-10-19T07:37:48.910Z,102029.00
2022-10-19T07:40:19.441Z,102022.00
2022-10-19T07:42:49.653Z,102023.00
2022-10-19T07:45:20.136Z,102015.00
2022-10-19T07:47:50.270Z,102029.00
2022-10-19T07:50:23.278Z,102030.00
2022-10-19T07:52:54.928Z,102029.00
2022-10-19T07:55:25.067Z,102032.00
2022-10-19T07:57:55.413Z,102036.00
2022-10-19T08:00:25.570Z,102035.00
2022-10-19T08:03:31.291Z,102041.00
2022-10-19T08:05:48.396Z,102030.00
2022-10-19T08:08:18.501Z,102032.00
2022-10-19T08:10:48.535Z,102032.00
2022-10-19T08:13:18.761Z,102031.00
2022-10-19T08:15:48.913Z,102034.00
2022-10-19T08:18:23.228Z,102033.00
2022-10-19T08:20:56.335Z,102039.00
2022-10-19T08:23:27.624Z,102038.00
2022-10-19T08:26:01.248Z,102049.00
2022-10-19T08:28:31.764Z,102043.00
2022-10-19T08:31:01.913Z,102044.00
2022-10-19T08:33:32.026Z,102049.00
2022-10-19T08:36:08.620Z,102055.00
2022-10-19T08:38:39.814Z,102049.00
2022-10-19T08:41:23.426Z,102054.00
2022-10-19T08:44:37.710Z,102050.00
2022-10-19T08:47:23.260Z,102051.00
2022-10-19T08:49:54.422Z,102065.00
2022-10-19T08:52:34.245Z,102060.00
2022-10-19T08:55:13.919Z,102058.00
2022-10-19T08:57:56.284Z,102055.00
2022-10-19T09:03:56.558Z,102059.00
2022-10-19T09:06:32.268Z,102063.00
2022-10-19T09:09:05.286Z,102055.00
2022-10-19T09:11:42.095Z,102061.00
2022-10-19T09:14:23.670Z,102069.00
2022-10-19T09:16:53.995Z,102062.00
2022-10-19T09:19:29.420Z,102068.00
2022-10-19T09:22:01.384Z,102070.00
2022-10-19T09:24:44.142Z,102058.00
2022-10-19T09:27:24.074Z,102072.00
2022-10-19T09:29:59.030Z,102078.00
2022-10-19T09:32:35.203Z,102081.00
2022-10-19T09:35:09.699Z,102082.00
2022-10-19T09:37:46.155Z,102085.00
2022-10-19T09:40:22.565Z,102084.00
2022-10-19T09:42:57.329Z,102079.00
2022-10-19T09:45:37.645Z,102077.00
2022-10-19T09:48:18.223Z,102080.00
2022-10-19T09:51:01.745Z,102080.00
2022-10-19T09:53:33.340Z,102097.00
2022-10-19T09:56:09.565Z,102088.00
2022-10-19T09:58:39.624Z,102094.00
2022-10-19T10:01:09.820Z,102083.00
2022-10-19T10:03:43.762Z,102084.00
2022-10-19T10:06:18.256Z,102100.00
2022-10-19T10:08:51.197Z,102100.00
2022-10-19T10:11:31.753Z,102099.00
2022-10-19T10:14:10.008Z,102104.00
2022-10-19T10:16:40.426Z,102098.00
2022-10-19T10:19:15.530Z,102093.00
2022-10-19T10:21:52.715Z,102087.00
2022-10-19T10:24:25.625Z,102084.00
2022-10-19T10:27:01.260Z,102091.00
2022-10-19T10:29:33.519Z,102092.00
2022-10-19T10:32:09.094Z,102083.00
2022-10-19T10:34:50.609Z,102083.00
2022-10-19T10:37:26.376Z,102085.00
2022-10-19T10:40:01.972Z,102082.00
2022-10-19T10:42:48.590Z,102086.00
2022-10-19T10:45:23.406Z,102090.00
2022-10-19T10:47:54.506Z,102084.00
2022-10-19T10:50:27.940Z,102090.00
2022-10-19T10:53:02.977Z,102083.00
2022-10-19T10:55:35.075Z,102083.00
2022-10-19T10:58:24.301Z,102086.00
2022-10-19T11:00:57.447Z,102088.00
2022-10-19T11:03:30.615Z,102087.00
2022-10-19T11:06:02.975Z,102089.00
2022-10-19T11:08:47.125Z,102096.00
2022-10-19T11:11:23.720Z,102090.00
2022-10-19T11:14:02.446Z,102093.00
2022-10-19T11:16:38.469Z,102083.00
2022-10-19T11:21:51.436Z,102095.00
2022-10-19T11:24:38.517Z,102091.00
2022-10-19T11:27:20.235Z,102094.00
2022-10-19T11:30:16.050Z,102103.00
2022-10-19T11:33:01.602Z,102093.00
2022-10-19T11:35:49.891Z,102095.00
2022-10-19T11:38:33.193Z,102088.00
2022-10-19T11:41:18.190Z,102095.00
2022-10-19T11:44:05.868Z,102093.00
2022-10-19T11:46:50.384Z,102080.00
2022-10-19T11:49:37.792Z,102082.00
2022-10-19T11:52:18.989Z,102084.00
2022-10-19T11:55:05.374Z,102083.00
2022-10-19T11:57:43.445Z,102089.00
2022-10-19T12:00:37.758Z,102084.00
2022-10-19T12:03:50.754Z,102088.00
2022-10-19T12:06:27.695Z,102076.00
2022-10-19T12:09:17.018Z,102087.00
2022-10-19T12:11:59.078Z,102086.00
2022-10-19T12:14:35.424Z,102076.00
2022-10-19T12:17:11.092Z,102070.00
2022-10-19T12:19:50.013Z,102070.00
2022-10-19T12:22:26.961Z,102067.00
2022-10-19T12:25:00.280Z,102080.00
2022-10-19T12:27:38.113Z,102078.00
2022-10-19T12:30:16.656Z,102080.00
2022-10-19T12:33:10.794Z,102078.00
2022-10-19T12:36:01.044Z,102071.00
2022-10-19T12:38:45.065Z,102074.00
2022-10-19T12:41:27.847Z,102070.00
2022-10-19T12:44:12.050Z,102067.00
2022-10-19T12:46:49.888Z,102058.00
2022-10-19T12:49:49.641Z,102059.00
2022-10-19T12:52:42.614Z,102061.00
2022-10-19T12:55:34.844Z,102069.00
2022-10-19T12:58:21.059Z,102062.00
2022-10-19T13:01:02.978Z,102052.00
2022-10-19T13:03:37.175Z,102060.00
2022-10-19T13:06:15.042Z,102055.00
2022-10-19T13:08:57.303Z,102066.00
2022-10-19T13:11:27.661Z,102056.00
2022-10-19T13:14:03.144Z,102058.00
2022-10-19T13:17:10.275Z,102051.00
2022-10-19T13:19:42.034Z,102058.00
2022-10-19T13:22:30.169Z,102058.00
2022-10-19T13:25:36.667Z,102052.00
2022-10-19T13:28:40.649Z,102052.00
2022-10-19T13:31:29.914Z,102036.00
2022-10-19T13:34:01.281Z,102054.00
2022-10-19T13:36:32.088Z,102039.00
2022-10-19T13:39:18.451Z,102052.00
2022-10-19T13:41:56.498Z,102048.00
2022-10-19T13:44:36.781Z,102035.00
2022-10-19T13:50:28.142Z,102037.00
2022-10-19T13:53:27.781Z,102045.00
2022-10-19T13:56:26.178Z,102037.00
2022-10-19T13:59:37.946Z,102039.00
2022-10-19T14:03:00.195Z,102034.00
2022-10-19T14:05:59.205Z,102041.00
2022-10-19T14:08:57.570Z,102033.00
2022-10-19T14:11:34.180Z,102033.00
2022-10-19T14:14:20.523Z,102032.00
2022-10-19T14:16:59.624Z,102032.00
2022-10-19T14:19:43.753Z,102033.00
2022-10-19T14:22:38.940Z,102028.00
2022-10-19T14:25:20.522Z,102025.00
2022-10-19T14:27:55.103Z,102025.00
2022-10-19T14:30:29.576Z,102026.00
2022-10-19T14:33:02.347Z,102033.00
2022-10-19T14:35:37.587Z,102032.00
2022-10-19T14:38:09.624Z,102032.00
2022-10-19T14:40:43.313Z,102034.00
2022-10-19T14:43:24.674Z,102032.00
2022-10-19T14:46:17.884Z,102026.00
2022-10-19T14:48:50.125Z,102023.00
2022-10-19T14:51:32.560Z,102024.00
2022-10-19T14:54:07.258Z,102023.00
2022-10-19T14:56:40.095Z,102019.00
2022-10-19T14:59:23.002Z,102021.00
2022-10-19T15:01:58.914Z,102022.00
2022-10-19T15:04:33.775Z,102014.00
2022-10-19T15:07:08.098Z,102015.00
2022-10-19T15:09:48.175Z,102011.00
2022-10-19T15:12:24.624Z,102013.00
2022-10-19T15:14:55.345Z,102018.00
2022-10-19T15:17:32.328Z,102015.00
2022-10-19T15:20:04.752Z,102026.00
2022-10-19T15:22:43.330Z,102027.00
2022-10-19T15:25:39.734Z,102019.00
2022-10-19T15:28:31.053Z,102015.00
2022-10-19T15:31:06.011Z,102016.00
2022-10-19T15:33:48.198Z,102016.00
2022-10-19T15:36:20.228Z,102019.00
2022-10-19T15:38:53.119Z,102013.00
2022-10-19T15:41:32.760Z,102022.00
2022-10-19T15:44:04.415Z,102020.00
2022-10-19T15:50:00.809Z,102022.00
2022-10-19T15:52:33.540Z,102015.00
2022-10-19T15:55:04.915Z,102022.00
2022-10-19T15:57:38.343Z,102021.00
2022-10-19T16:00:17.773Z,102029.00
2022-10-19T16:02:48.340Z,102024.00
2022-10-19T16:05:21.179Z,102031.00
2022-10-19T16:07:51.772Z,102034.00
2022-10-19T16:10:25.408Z,102029.00
2022-10-19T16:12:56.253Z,102035.00
2022-10-19T16:15:27.160Z,102036.00
2022-10-19T16:18:00.602Z,102033.00
2022-10-19T16:20:33.949Z,102036.00
2022-10-19T16:23:04.113Z,102034.00
2022-10-19T16:25:34.309Z,102040.00
2022-10-19T16:28:04.639Z,102041.00
2022-10-19T16:30:34.775Z,102046.00
2022-10-19T16:33:04.985Z,102052.00
2022-10-19T16:35:40.414Z,102051.00
2022-10-19T16:38:10.924Z,102040.00
2022-10-19T16:40:41.350Z,102047.00
2022-10-19T16:43:11.911Z,102055.00
2022-10-19T16:45:45.757Z,102045.00
2022-10-19T16:48:18.890Z,102046.00
2022-10-19T16:51:25.880Z,102052.00
2022-10-19T16:53:59.152Z,102058.00
2022-10-19T16:56:31.806Z,102052.00
2022-10-19T16:59:04.579Z,102061.00
2022-10-19T17:01:36.901Z,102057.00
2022-10-19T17:04:07.275Z,102062.00
2022-10-19T17:06:40.800Z,102068.00
2022-10-19T17:09:40.222Z,102064.00
2022-10-19T17:12:01.778Z,102072.00
2022-10-19T17:14:32.052Z,102066.00
2022-10-19T17:17:02.437Z,102066.00
2022-10-19T17:19:32.738Z,102080.00
2022-10-19T17:22:06.393Z,102084.00
2022-10-19T17:24:37.669Z,102080.00
2022-10-19T17:27:08.107Z,102087.00
2022-10-19T17:29:38.929Z,102086.00
2022-10-19T17:32:09.752Z,102080.00
2022-10-19T17:34:40.289Z,102079.00
2022-10-19T17:37:13.444Z,102087.00
2022-10-19T17:39:43.708Z,102081.00
2022-10-19T17:42:14.005Z,102083.00
2022-10-19T17:44:44.450Z,102082.00
2022-10-19T17:47:14.886Z,102086.00
2022-10-19T17:49:45.367Z,102090.00
2022-10-19T17:52:18.254Z,102087.00
2022-10-19T17:55:11.129Z,102094.00
2022-10-19T17:57:39.507Z,102095.00
2022-10-19T18:00:11.784Z,102089.00
2022-10-19T18:02:42.079Z,102092.00
2022-10-19T18:05:13.043Z,102091.00
2022-10-19T18:07:49.366Z,102085.00
2022-10-19T18:10:19.799Z,102094.00
2022-10-19T18:12:49.922Z,102096.00
2022-10-19T18:15:20.486Z,102099.00
2022-10-19T18:17:50.808Z,102097.00
2022-10-19T18:20:21.426Z,102099.00
2022-10-19T18:22:54.276Z,102102.00
2022-10-19T18:25:42.156Z,102097.00
2022-10-19T18:28:15.621Z,102096.00
2022-10-19T18:30:46.280Z,102099.00
2022-10-19T18:33:16.606Z,102101.00
2022-10-19T18:35:47.009Z,102091.00
2022-10-19T18:38:20.012Z,102098.00
2022-10-19T18:40:50.308Z,102097.00
2022-10-19T18:43:20.526Z,102101.00
2022-10-19T18:45:58.197Z,102106.00
2022-10-19T18:48:30.403Z,102108.00
2022-10-19T18:51:01.081Z,102098.00
2022-10-19T18:53:34.747Z,102098.00
2022-10-19T18:56:08.121Z,102097.00
2022-10-19T18:58:39.424Z,102104.00
2022-10-19T19:01:12.436Z,102096.00
2022-10-19T19:03:45.029Z,102099.00
2022-10-19T19:06:17.528Z,102099.00
2022-10-19T19:08:52.042Z,102098.00
2022-10-19T19:11:24.556Z,102097.00
2022-10-19T19:13:57.782Z,102093.00
2022-10-19T19:16:29.404Z,102102.00
2022-10-19T19:18:59.635Z,102095.00
2022-10-19T19:21:32.838Z,102090.00
2022-10-19T19:24:08.866Z,102103.00
2022-10-19T19:26:48.473Z,102097.00
2022-10-19T19:29:19.132Z,102095.00
2022-10-19T19:31:49.991Z,102097.00
2022-10-19T19:34:20.957Z,102098.00
2022-10-19T19:36:51.161Z,102092.00
2022-10-19T19:39:24.401Z,102095.00
2022-10-19T19:41:54.508Z,102098.00
2022-10-19T19:44:25.189Z,102092.00
2022-10-19T19:46:55.592Z,102090.00
2022-10-19T19:49:25.792Z,102089.00
2022-10-19T19:51:57.440Z,102101.00
2022-10-19T19:54:30.176Z,102101.00
2022-10-19T19:57:00.463Z,102102.00
2022-10-19T19:59:30.701Z,102101.00
2022-10-19T20:02:01.603Z,102098.00
2022-10-19T20:04:31.991Z,102097.00
2022-10-19T20:07:02.137Z,102100.00
2022-10-19T20:09:35.373Z,102085.00
2022-10-19T20:12:05.448Z,102091.00
2022-10-19T20:14:35.708Z,102091.00
2022-10-19T20:17:05.862Z,102097.00
2022-10-19T20:19:36.034Z,102096.00
2022-10-19T20:22:06.471Z,102099.00
2022-10-19T20:24:40.397Z,102096.00
2022-10-19T20:27:10.541Z,102102.00
2022-10-19T20:29:40.799Z,102104.00
2022-10-19T20:32:10.916Z,102098.00
2022-10-19T20:34:41.085Z,102097.00
2022-10-19T20:37:12.161Z,102090.00
2022-10-19T20:39:44.889Z,102100.00
2022-10-19T20:42:15.629Z,102111.00
2022-10-19T20:44:45.896Z,102118.00
2022-10-19T20:47:16.288Z,102117.00
2022-10-19T20:49:46.461Z,102110.00
2022-10-19T20:52:16.700Z,102121.00
2022-10-19T20:54:51.364Z,102118.00
2022-10-19T20:57:21.770Z,102121.00
2022-10-19T20:59:52.588Z,102127.00
2022-10-19T21:02:22.713Z,102119.00
2022-10-19T21:04:52.938Z,102121.00
2022-10-19T21:07:23.138Z,102128.00
2022-10-19T21:09:57.681Z,102118.00
2022-10-19T21:12:28.043Z,102122.00
2022-10-19T21:14:58.200Z,102116.00
2022-10-19T21:17:28.391Z,102126.00
2022-10-19T21:19:58.688Z,102128.00
2022-10-19T21:22:28.779Z,102132.00
2022-10-19T21:25:01.514Z,102120.00
2022-10-19T21:27:31.834Z,102115.00
2022-10-19T21:30:02.022Z,102122.00
2022-10-19T21:32:32.141Z,102127.00
2022-10-19T21:35:02.172Z,102121.00
2022-10-19T21:37:33.103Z,102113.00
2022-10-19T21:40:06.183Z,102120.00
2022-10-19T21:42:36.327Z,102121.00
2022-10-19T21:45:25.699Z,102108.00
2022-10-19T21:47:56.927Z,102113.00
2022-10-19T21:50:27.105Z,102111.00
2022-10-19T21:52:57.317Z,102118.00
2022-10-19T21:55:31.304Z,102112.00
2022-10-19T21:58:01.368Z,102106.00
2022-10-19T22:00:31.779Z,102102.00
2022-10-19T22:03:01.896Z,102105.00
2022-10-19T22:05:32.035Z,102091.00
2022-10-19T22:08:02.335Z,102092.00
2022-10-19T22:10:35.163Z,102089.00
2022-10-19T22:13:05.346Z,102088.00
2022-10-19T22:15:39.957Z,102082.00
2022-10-19T22:18:10.811Z,102081.00
2022-10-19T22:20:42.498Z,102077.00
2022-10-19T22:23:12.651Z,102078.00
2022-10-19T22:25:45.437Z,102079.00
2022-10-19T22:28:15.619Z,102073.00
2022-10-19T22:30:45.792Z,102064.00
2022-10-19T22:33:15.961Z,102064.00
2022-10-19T22:35:46.076Z,102069.00
2022-10-19T22:38:16.145Z,102073.00
2022-10-19T22:40:48.837Z,102071.00
2022-10-19T22:43:18.992Z,102065.00
2022-10-19T22:45:50.793Z,102066.00
2022-10-19T22:48:22.064Z,102059.00
2022-10-19T22:50:55.559Z,102058.00
2022-10-19T22:53:26.231Z,102067.00
2022-10-19T22:55:58.933Z,102067.00
2022-10-19T22:58:29.083Z,102073.00
2022-10-19T23:01:10.108Z,102072.00
2022-10-19T23:03:40.740Z,102062.00
2022-10-19T23:06:13.547Z,102068.00
2022-10-19T23:08:44.260Z,102066.00
2022-10-19T23:11:18.263Z,102063.00
2022-10-19T23:13:48.571Z,102060.00
2022-10-19T23:16:18.961Z,102064.00
2022-10-19T23:18:49.275Z,102061.00
2022-10-19T23:21:19.480Z,102066.00
2022-10-19T23:23:49.747Z,102057.00
2022-10-19T23:26:24.894Z,102059.00
2022-10-19T23:28:55.392Z,102056.00
2022-10-19T23:31:30.459Z,102051.00
2022-10-19T23:34:00.616Z,102045.00
2022-10-19T23:36:32.309Z,102036.00
2022-10-19T23:39:02.465Z,102039.00
2022-10-19T23:41:35.292Z,102040.00
2022-10-19T23:44:05.427Z,102053.00
2022-10-19T23:46:35.516Z,102052.00
2022-10-19T23:49:05.869Z,102056.00
2022-10-19T23:51:36.000Z,102060.00
2022-10-19T23:54:06.414Z,102046.00
2022-10-19T23:56:39.241Z,102047.00
2022-10-19T23:59:09.929Z,102040.00
